Warrensburg, MO

1:19 AM CDT on March 27, 2015 (GMT -0500)
Clinton Memorial | | Change Station
CLOSE
Current Station
Airport
Location: Clinton,
Elevation: 823 ft
Nearby Weather Stations

Elev 823 ft 38.36 °N, 93.68 °W | Updated 4 minutes ago

Rain
Rain
43 °F
Feels Like 36 °F
N
13
Wind Variable Wind from North

Today
High -- | Low -- °F
--% Chance of Precip.
Yesterday
High -- | Low -- °F
Precip. -- in
7:07 AM 7:33 PM
Waxing Crescent, 49% visible
Pressure 30.13 in
Visibility 5.0 miles
Clouds Mostly Cloudy 2100 ft
Overcast 2900 ft
Windchill 36 °F
Dew Point 36 °F
Humidity 76%
Rainfall 0.00 in
Snow Depth Not available.
UV 0 out of 12
Pollen 8.10 out of 12
Air Quality Not available.
Flu Activity Not available.
METAR KGLY 270615Z AUTO 35011KT 5SM UP BKN021 OVC029 06/02 A3013 RMK AO2

More Conditions Fewer Conditions

Pressure 30.13 in
Visibility 5.0 miles
Clouds Mostly Cloudy 2100 ft
Overcast 2900 ft
Windchill 36 °F
Dew Point 36 °F
Humidity 76%
Rainfall 0.00 in
Snow Depth Not available.
UV 0 out of 12
Pollen 8.10 out of 12
Air Quality Not available.
Flu Activity Not available.
METAR KGLY 270615Z AUTO 35011KT 5SM UP BKN021 OVC029 06/02 A3013 RMK AO2

More Conditions Fewer Conditions

10-Day Weather Forecast

Almanac

Astronomy

Mar. 27, 2015 Rise Set
Actual Time
Civil Twilight
Nautical Twilight
Astronomical Twilight
Moon
Length of Visible Light
Length of Day
Tomorrow will be .
, % of the Moon is Illuminated

Today's Extremes

State Highs State Lows

Community

WunderPhotos

Upload Photos

1,808,700 photos uploaded!

WunderBlogs® & News

Nearby

Air Quality

  Air Quality AQ Index Pollutant
Not available.

Snow Depth

Station Depth Elevation

Earthquake Activity

City Distance Mag. Time & Date
Minimum magnitude displayed is 2.5.

Coastal Water Temperatures

Place Temperature

Stations

Nearby Weather Stations

Station Location Temp. Windchill Dew Point Humidity Wind Precip. Elev Updated Type